createdAt,value
2023-03-27T00:01:23.915Z,4.60
2023-03-27T00:04:12.104Z,4.59
2023-03-27T00:07:06.106Z,4.55
2023-03-27T00:09:54.426Z,4.49
2023-03-27T00:12:44.208Z,4.39
2023-03-27T00:15:36.031Z,4.35
2023-03-27T00:18:24.676Z,4.32
2023-03-27T00:21:12.849Z,4.30
2023-03-27T00:24:01.576Z,4.27
2023-03-27T00:26:49.592Z,4.30
2023-03-27T00:29:37.715Z,4.37
2023-03-27T00:32:27.560Z,4.41
2023-03-27T00:35:16.393Z,4.40
2023-03-27T00:38:04.674Z,4.48
2023-03-27T00:40:54.841Z,4.51
2023-03-27T00:43:44.787Z,4.65
2023-03-27T00:46:41.583Z,4.71
2023-03-27T00:49:34.845Z,4.78
2023-03-27T00:52:22.990Z,4.69
2023-03-27T00:55:15.861Z,4.51
2023-03-27T00:58:11.088Z,4.29
2023-03-27T01:00:59.557Z,4.14
2023-03-27T01:03:50.586Z,4.09
2023-03-27T01:06:42.166Z,3.91
2023-03-27T01:09:30.711Z,3.71
2023-03-27T01:12:28.564Z,3.61
2023-03-27T01:15:29.363Z,3.52
2023-03-27T01:18:32.710Z,3.49
2023-03-27T01:22:09.288Z,3.64
2023-03-27T01:25:22.516Z,3.74
2023-03-27T01:28:26.598Z,3.85
2023-03-27T01:31:32.008Z,3.89
2023-03-27T01:34:42.646Z,3.85
2023-03-27T01:38:06.453Z,3.83
2023-03-27T01:41:02.320Z,3.76
2023-03-27T01:43:57.789Z,3.72
2023-03-27T01:46:52.591Z,3.67
2023-03-27T01:49:46.488Z,3.55
2023-03-27T01:52:39.848Z,3.47
2023-03-27T01:55:32.802Z,3.42
2023-03-27T01:58:28.122Z,3.34
2023-03-27T02:01:20.084Z,3.42
2023-03-27T02:04:13.878Z,3.49
2023-03-27T02:07:07.845Z,3.53
2023-03-27T02:10:00.267Z,3.50
2023-03-27T02:12:51.393Z,3.14
2023-03-27T02:15:44.060Z,2.79
2023-03-27T02:18:36.667Z,2.28
2023-03-27T02:21:25.081Z,1.95
2023-03-27T02:24:13.205Z,1.90
2023-03-27T02:27:12.838Z,1.93
2023-03-27T02:30:14.777Z,1.90
2023-03-27T02:33:16.534Z,1.89
2023-03-27T02:36:21.177Z,1.87
2023-03-27T02:39:16.439Z,1.79
2023-03-27T02:42:13.359Z,1.72
2023-03-27T02:45:10.281Z,1.66
2023-03-27T02:48:04.142Z,1.60
2023-03-27T02:50:57.609Z,1.55
2023-03-27T02:53:51.712Z,1.52
2023-03-27T02:56:45.435Z,1.46
2023-03-27T02:59:36.759Z,1.28
2023-03-27T03:02:32.514Z,1.26
2023-03-27T03:05:24.415Z,1.27
2023-03-27T03:08:14.767Z,1.31
2023-03-27T03:11:04.368Z,1.46
2023-03-27T03:13:52.526Z,1.71
2023-03-27T03:16:40.623Z,2.06
2023-03-27T03:19:28.779Z,2.27
2023-03-27T03:22:16.900Z,2.36
2023-03-27T03:25:07.683Z,2.38
2023-03-27T03:27:58.164Z,2.37
2023-03-27T03:30:50.380Z,2.35
2023-03-27T03:33:38.523Z,2.34
2023-03-27T03:36:30.711Z,2.28
2023-03-27T03:39:19.165Z,2.24
2023-03-27T03:42:08.618Z,2.17
2023-03-27T03:44:56.715Z,2.05
2023-03-27T03:47:45.778Z,2.14
2023-03-27T03:50:34.010Z,2.23
2023-03-27T03:53:22.913Z,2.30
2023-03-27T03:56:11.050Z,2.38
2023-03-27T03:59:00.819Z,2.33
2023-03-27T04:01:48.911Z,2.23
2023-03-27T04:04:36.920Z,2.18
2023-03-27T04:07:31.491Z,2.16
2023-03-27T04:10:19.800Z,2.12
2023-03-27T04:13:08.037Z,2.04
2023-03-27T04:16:01.543Z,1.95
2023-03-27T04:18:50.741Z,1.92
2023-03-27T04:21:38.938Z,2.10
2023-03-27T04:24:26.968Z,2.48
2023-03-27T04:27:14.944Z,2.64
2023-03-27T04:30:03.225Z,3.04
2023-03-27T04:32:53.409Z,3.31
2023-03-27T04:35:42.406Z,3.33
2023-03-27T04:38:31.620Z,3.36
2023-03-27T04:41:21.163Z,3.44
2023-03-27T04:44:09.253Z,3.47
2023-03-27T04:46:58.126Z,3.28
2023-03-27T04:49:50.833Z,3.04
2023-03-27T04:52:38.829Z,2.97
2023-03-27T04:55:27.586Z,2.72
2023-03-27T04:58:15.649Z,2.60
2023-03-27T05:01:03.728Z,2.48
2023-03-27T05:03:51.816Z,2.45
2023-03-27T05:06:41.428Z,2.40
2023-03-27T05:09:29.451Z,2.32
2023-03-27T05:12:17.798Z,2.30
2023-03-27T05:15:07.153Z,2.32
2023-03-27T05:17:55.849Z,2.27
2023-03-27T05:20:44.033Z,2.25
2023-03-27T05:23:33.343Z,2.17
2023-03-27T05:26:22.262Z,2.03
2023-03-27T05:29:10.519Z,1.94
2023-03-27T05:32:01.149Z,1.79
2023-03-27T05:34:50.849Z,1.74
2023-03-27T05:37:38.900Z,1.71
2023-03-27T05:40:29.247Z,1.73
2023-03-27T05:43:17.191Z,1.74
2023-03-27T05:46:05.660Z,1.73
2023-03-27T05:48:53.884Z,1.87
2023-03-27T05:51:46.741Z,1.94
2023-03-27T05:54:35.825Z,1.96
2023-03-27T05:57:25.279Z,2.22
2023-03-27T06:00:16.305Z,2.61
2023-03-27T06:03:05.209Z,2.66
2023-03-27T06:05:53.432Z,2.91
2023-03-27T06:08:41.468Z,3.13
2023-03-27T06:11:29.507Z,3.21
2023-03-27T06:14:18.860Z,3.34
2023-03-27T06:17:07.125Z,3.54
2023-03-27T06:19:57.061Z,3.57
2023-03-27T06:22:47.412Z,3.55
2023-03-27T06:25:37.325Z,3.53
2023-03-27T06:28:25.552Z,3.58
2023-03-27T06:31:19.266Z,3.63
2023-03-27T06:34:08.618Z,3.62
2023-03-27T06:36:59.978Z,3.61
2023-03-27T06:39:50.602Z,3.74
2023-03-27T06:42:38.663Z,3.76
2023-03-27T06:45:29.821Z,3.76
2023-03-27T06:48:22.109Z,3.86
2023-03-27T06:51:10.672Z,3.91
2023-03-27T06:53:59.480Z,3.63
2023-03-27T06:56:47.682Z,3.45
2023-03-27T06:59:36.184Z,3.48
2023-03-27T07:02:24.249Z,3.59
2023-03-27T07:05:14.512Z,3.61
2023-03-27T07:08:11.252Z,3.70
2023-03-27T07:11:12.022Z,3.94
2023-03-27T07:14:00.885Z,4.09
2023-03-27T07:16:48.981Z,4.07
2023-03-27T07:19:37.164Z,4.11
2023-03-27T07:22:26.812Z,4.10
2023-03-27T07:25:14.933Z,4.06
2023-03-27T07:28:05.611Z,4.09
2023-03-27T07:30:54.199Z,4.18
2023-03-27T07:33:42.503Z,4.38
2023-03-27T07:36:30.707Z,4.69
2023-03-27T07:39:20.410Z,4.47
2023-03-27T07:42:08.979Z,4.24
2023-03-27T07:44:57.069Z,4.14
2023-03-27T07:47:46.115Z,4.14
2023-03-27T07:50:34.505Z,4.27
2023-03-27T07:53:33.844Z,4.47
2023-03-27T07:56:24.543Z,4.76
2023-03-27T07:59:12.612Z,4.76
2023-03-27T08:02:01.057Z,4.66
2023-03-27T08:04:49.185Z,4.69
2023-03-27T08:07:38.029Z,4.72
2023-03-27T08:10:26.131Z,4.84
2023-03-27T08:13:17.750Z,4.72
2023-03-27T08:16:08.812Z,4.79
2023-03-27T08:18:57.582Z,5.17
2023-03-27T08:21:45.800Z,5.41
2023-03-27T08:24:33.858Z,5.34
2023-03-27T08:27:21.916Z,5.19
2023-03-27T08:30:16.263Z,4.94
2023-03-27T08:33:05.156Z,5.04
2023-03-27T08:35:53.293Z,5.06
2023-03-27T08:38:43.042Z,5.44
2023-03-27T08:41:38.553Z,5.90
2023-03-27T08:44:28.728Z,5.67
2023-03-27T08:47:24.959Z,5.54
2023-03-27T08:50:23.594Z,5.08
2023-03-27T08:53:20.921Z,5.07
2023-03-27T08:56:13.990Z,5.49
2023-03-27T08:59:02.765Z,5.86
2023-03-27T09:01:59.043Z,6.29
2023-03-27T09:04:52.273Z,6.34
2023-03-27T09:07:51.010Z,6.50
2023-03-27T09:10:46.351Z,6.22
2023-03-27T09:13:40.780Z,6.58
2023-03-27T09:16:34.163Z,6.06
2023-03-27T09:19:32.789Z,5.55
2023-03-27T09:22:26.541Z,5.64
2023-03-27T09:25:23.261Z,6.45
2023-03-27T09:28:20.866Z,6.92
2023-03-27T09:31:26.575Z,7.72
2023-03-27T09:34:16.897Z,7.65
2023-03-27T09:37:12.378Z,7.69
2023-03-27T09:40:02.271Z,6.18
2023-03-27T09:42:53.063Z,7.01
2023-03-27T09:45:41.918Z,8.51
2023-03-27T09:48:36.721Z,7.55
2023-03-27T09:51:38.112Z,5.60
2023-03-27T09:54:29.701Z,4.59
2023-03-27T09:57:19.415Z,4.35
2023-03-27T10:00:15.443Z,4.47
2023-03-27T10:03:05.957Z,4.49
2023-03-27T10:06:07.185Z,6.44
2023-03-27T10:08:56.950Z,7.17
2023-03-27T10:11:44.982Z,5.93
2023-03-27T10:14:38.721Z,4.51
2023-03-27T10:17:31.331Z,3.96
2023-03-27T10:20:22.352Z,3.74
2023-03-27T10:23:25.231Z,4.47
2023-03-27T10:26:18.291Z,5.72
2023-03-27T10:29:21.741Z,5.97
2023-03-27T10:32:11.160Z,6.38
2023-03-27T10:34:59.604Z,6.77
2023-03-27T10:37:51.310Z,6.75
2023-03-27T10:41:17.598Z,7.13
2023-03-27T10:44:20.235Z,7.24
2023-03-27T10:47:20.278Z,7.66
2023-03-27T10:50:16.242Z,7.21
2023-03-27T10:53:13.477Z,6.91
2023-03-27T10:56:11.852Z,6.81
2023-03-27T10:59:04.260Z,7.30
2023-03-27T11:01:56.642Z,8.07
2023-03-27T11:04:52.594Z,6.42
2023-03-27T11:07:46.668Z,6.40
2023-03-27T11:10:37.848Z,6.59
2023-03-27T11:13:29.626Z,7.04
2023-03-27T11:16:24.291Z,6.68
2023-03-27T11:19:27.832Z,6.77
2023-03-27T11:22:23.807Z,6.55
2023-03-27T11:25:23.424Z,6.75
2023-03-27T11:28:20.776Z,6.56
2023-03-27T11:31:16.017Z,6.98
2023-03-27T11:34:07.387Z,6.74
2023-03-27T11:37:02.622Z,6.29
2023-03-27T11:39:56.028Z,6.44
2023-03-27T11:42:49.252Z,6.45
2023-03-27T11:45:45.804Z,6.62
2023-03-27T11:49:02.316Z,5.93
2023-03-27T11:52:04.890Z,6.70
2023-03-27T11:55:18.031Z,6.04
2023-03-27T11:58:27.298Z,6.10
2023-03-27T12:01:22.129Z,6.40
2023-03-27T12:04:32.995Z,6.33
2023-03-27T12:07:36.365Z,6.22
2023-03-27T12:10:32.808Z,6.34
2023-03-27T12:13:41.761Z,6.36
2023-03-27T12:16:44.781Z,6.57
2023-03-27T12:19:46.778Z,6.64
2023-03-27T12:22:45.039Z,6.35
2023-03-27T12:26:07.743Z,6.64
2023-03-27T12:29:23.830Z,6.66
2023-03-27T12:32:26.569Z,6.70
2023-03-27T12:35:21.350Z,6.44
2023-03-27T12:38:15.201Z,6.86
2023-03-27T12:41:20.419Z,6.32
2023-03-27T12:44:13.871Z,6.31
2023-03-27T12:47:09.014Z,6.41
2023-03-27T12:49:59.212Z,6.93
2023-03-27T12:52:47.658Z,7.23
2023-03-27T12:55:36.815Z,6.87
2023-03-27T12:58:35.591Z,7.04
2023-03-27T13:01:52.420Z,6.65
2023-03-27T13:04:57.195Z,7.05
2023-03-27T13:07:53.490Z,6.99
2023-03-27T13:10:58.321Z,6.53
2023-03-27T13:14:23.201Z,7.10
2023-03-27T13:17:30.166Z,6.72
2023-03-27T13:20:27.319Z,6.86
2023-03-27T13:23:39.979Z,7.41
2023-03-27T13:26:43.729Z,7.02
2023-03-27T13:29:36.117Z,7.34
2023-03-27T13:32:36.868Z,7.52
2023-03-27T13:35:41.154Z,7.47
2023-03-27T13:38:49.594Z,7.38
2023-03-27T13:41:53.406Z,6.97
2023-03-27T13:44:53.706Z,7.04
2023-03-27T13:48:10.086Z,6.93
2023-03-27T13:51:28.287Z,7.38
2023-03-27T13:55:01.294Z,6.95
2023-03-27T13:58:08.930Z,6.62
2023-03-27T14:01:09.960Z,6.39
2023-03-27T14:04:10.220Z,6.54
2023-03-27T14:07:46.258Z,6.66
2023-03-27T14:10:52.547Z,6.35
2023-03-27T14:13:55.790Z,7.00
2023-03-27T14:17:03.982Z,7.00
2023-03-27T14:20:26.383Z,6.92
2023-03-27T14:23:18.728Z,6.81
2023-03-27T14:26:11.199Z,6.40
2023-03-27T14:29:02.403Z,6.86
2023-03-27T14:31:51.553Z,6.96
2023-03-27T14:34:53.985Z,6.88
2023-03-27T14:37:45.242Z,7.17
2023-03-27T14:40:39.422Z,6.97
2023-03-27T14:43:30.754Z,6.81
2023-03-27T14:46:24.549Z,7.08
2023-03-27T14:49:19.718Z,6.48
2023-03-27T14:52:09.683Z,6.22
2023-03-27T14:54:59.605Z,6.69
2023-03-27T14:57:49.690Z,7.40
2023-03-27T15:00:40.600Z,7.92
2023-03-27T15:03:35.140Z,7.02
2023-03-27T15:06:26.393Z,6.48
2023-03-27T15:09:21.124Z,6.68
2023-03-27T15:12:13.639Z,6.54
2023-03-27T15:15:01.730Z,7.09
2023-03-27T15:17:54.687Z,7.26
2023-03-27T15:20:50.394Z,7.22
2023-03-27T15:23:41.230Z,6.98
2023-03-27T15:26:35.221Z,6.76
2023-03-27T15:29:39.369Z,6.38
2023-03-27T15:32:33.969Z,6.04
2023-03-27T15:35:30.823Z,6.37
2023-03-27T15:38:25.393Z,6.72
2023-03-27T15:41:51.105Z,6.62
2023-03-27T15:44:40.117Z,6.57
2023-03-27T15:47:30.894Z,6.35
2023-03-27T15:50:22.739Z,6.40
2023-03-27T15:53:11.292Z,6.42
2023-03-27T15:56:01.618Z,6.19
2023-03-27T15:58:53.944Z,6.29
2023-03-27T16:01:43.945Z,6.66
2023-03-27T16:04:46.191Z,6.81
2023-03-27T16:07:45.042Z,6.76
2023-03-27T16:10:33.913Z,6.89
2023-03-27T16:13:33.563Z,6.41
2023-03-27T16:16:27.632Z,6.13
2023-03-27T16:19:16.417Z,5.98
2023-03-27T16:22:04.467Z,6.04
2023-03-27T16:24:52.739Z,6.36
2023-03-27T16:27:44.634Z,6.33
2023-03-27T16:30:35.846Z,6.63
2023-03-27T16:33:27.476Z,6.39
2023-03-27T16:36:16.776Z,6.45
2023-03-27T16:39:06.678Z,6.36
2023-03-27T16:41:54.644Z,5.97
2023-03-27T16:44:42.694Z,5.88
2023-03-27T16:47:30.810Z,5.75
2023-03-27T16:50:22.591Z,5.71
2023-03-27T16:53:11.311Z,5.65
2023-03-27T16:56:00.010Z,5.57
2023-03-27T16:58:48.607Z,5.46
2023-03-27T17:01:36.641Z,5.40
2023-03-27T17:04:25.383Z,5.25
2023-03-27T17:07:14.739Z,5.13
2023-03-27T17:10:03.419Z,5.12
2023-03-27T17:12:51.657Z,5.15
2023-03-27T17:15:40.282Z,5.21
2023-03-27T17:18:28.240Z,5.31
2023-03-27T17:21:16.294Z,5.25
2023-03-27T17:24:06.299Z,5.31
2023-03-27T17:26:54.528Z,5.31
2023-03-27T17:29:42.764Z,5.44
2023-03-27T17:32:35.045Z,5.10
2023-03-27T17:35:23.646Z,4.93
2023-03-27T17:38:12.984Z,4.71
2023-03-27T17:41:05.615Z,4.67
2023-03-27T17:43:53.798Z,4.67
2023-03-27T17:46:41.924Z,4.64
2023-03-27T17:49:31.925Z,4.58
2023-03-27T17:52:22.832Z,4.58
2023-03-27T17:55:11.530Z,4.57
2023-03-27T17:58:08.239Z,4.62
2023-03-27T18:01:00.917Z,4.60
2023-03-27T18:03:49.222Z,4.58
2023-03-27T18:06:38.043Z,4.59
2023-03-27T18:09:26.932Z,4.59
2023-03-27T18:12:16.795Z,4.56
2023-03-27T18:15:08.649Z,4.54
2023-03-27T18:17:56.819Z,4.48
2023-03-27T18:20:51.536Z,4.43
2023-03-27T18:23:46.089Z,4.40
2023-03-27T18:26:34.872Z,4.38
2023-03-27T18:29:24.168Z,4.34
2023-03-27T18:32:17.233Z,4.33
2023-03-27T18:35:06.750Z,4.28
2023-03-27T18:37:54.778Z,4.34
2023-03-27T18:40:42.881Z,4.37
2023-03-27T18:43:31.972Z,4.37
2023-03-27T18:46:20.483Z,4.29
2023-03-27T18:49:21.491Z,4.27
2023-03-27T18:52:14.440Z,4.17
2023-03-27T18:55:02.447Z,4.27
2023-03-27T18:57:50.555Z,4.26
2023-03-27T19:00:38.678Z,4.28
2023-03-27T19:03:30.481Z,4.34
2023-03-27T19:06:20.405Z,4.20
2023-03-27T19:09:08.390Z,3.90
2023-03-27T19:11:56.401Z,3.68
2023-03-27T19:14:50.814Z,3.58
2023-03-27T19:17:39.020Z,3.53
2023-03-27T19:20:27.312Z,3.52
2023-03-27T19:23:17.499Z,3.59
2023-03-27T19:26:10.450Z,3.64
2023-03-27T19:28:58.738Z,3.70
2023-03-27T19:31:47.248Z,3.70
2023-03-27T19:34:42.362Z,3.72
2023-03-27T19:37:31.295Z,3.78
2023-03-27T19:40:20.808Z,3.66
2023-03-27T19:43:08.807Z,3.70
2023-03-27T19:46:14.257Z,3.72
2023-03-27T19:49:04.245Z,3.93
2023-03-27T19:51:52.816Z,3.93
2023-03-27T19:54:41.535Z,3.96
2023-03-27T19:57:30.897Z,3.88
2023-03-27T20:00:19.834Z,3.85
2023-03-27T20:03:09.997Z,3.88
2023-03-27T20:06:07.589Z,3.82
2023-03-27T20:08:57.708Z,3.87
2023-03-27T20:11:46.640Z,3.97
2023-03-27T20:14:36.143Z,3.98
2023-03-27T20:17:28.438Z,3.89
2023-03-27T20:20:16.740Z,3.87
2023-03-27T20:23:05.192Z,3.74
2023-03-27T20:25:53.434Z,3.81
2023-03-27T20:28:41.712Z,3.82
2023-03-27T20:31:31.357Z,3.81
2023-03-27T20:34:22.534Z,3.82
2023-03-27T20:37:12.668Z,3.78
2023-03-27T20:40:01.994Z,3.78
2023-03-27T20:42:54.417Z,3.66
2023-03-27T20:45:44.164Z,3.44
2023-03-27T20:48:41.419Z,3.47
2023-03-27T20:51:29.453Z,3.48
2023-03-27T20:54:17.712Z,3.53
2023-03-27T20:57:06.518Z,3.59
2023-03-27T20:59:54.613Z,3.67
2023-03-27T21:02:42.668Z,3.61
2023-03-27T21:05:32.635Z,3.49
2023-03-27T21:08:20.750Z,3.50
2023-03-27T21:11:09.162Z,3.55
2023-03-27T21:13:57.190Z,3.61
2023-03-27T21:16:49.652Z,3.47
2023-03-27T21:19:37.763Z,3.36
2023-03-27T21:22:27.377Z,3.28
2023-03-27T21:25:15.423Z,3.00
2023-03-27T21:28:04.186Z,2.79
2023-03-27T21:30:52.547Z,2.61
2023-03-27T21:33:40.589Z,2.44
2023-03-27T21:36:29.652Z,2.30
2023-03-27T21:39:19.431Z,2.10
2023-03-27T21:42:10.802Z,1.95
2023-03-27T21:44:58.811Z,1.92
2023-03-27T21:47:48.003Z,1.85
2023-03-27T21:50:36.192Z,1.77
2023-03-27T21:53:24.154Z,1.71
2023-03-27T21:56:13.702Z,1.63
2023-03-27T21:59:02.415Z,1.56
2023-03-27T22:01:50.878Z,1.65
2023-03-27T22:04:39.021Z,1.62
2023-03-27T22:07:27.177Z,1.67
2023-03-27T22:10:15.740Z,1.80
2023-03-27T22:13:05.504Z,1.72
2023-03-27T22:15:53.785Z,1.78
2023-03-27T22:18:42.939Z,1.71
2023-03-27T22:21:31.968Z,1.71
2023-03-27T22:24:20.114Z,1.77
2023-03-27T22:27:08.370Z,1.69
2023-03-27T22:29:57.777Z,1.53
2023-03-27T22:32:45.911Z,1.32
2023-03-27T22:35:34.116Z,1.23
2023-03-27T22:38:22.113Z,1.23
2023-03-27T22:41:12.266Z,1.28
2023-03-27T22:44:01.104Z,1.31
2023-03-27T22:46:51.925Z,1.29
2023-03-27T22:49:40.072Z,1.38
2023-03-27T22:52:28.144Z,1.18
2023-03-27T22:55:16.288Z,1.04
2023-03-27T22:58:04.417Z,0.93
2023-03-27T23:00:54.344Z,0.80
2023-03-27T23:03:43.972Z,0.63
2023-03-27T23:06:32.384Z,0.59
2023-03-27T23:09:20.559Z,0.54
2023-03-27T23:12:08.800Z,0.53
2023-03-27T23:14:56.736Z,0.41
2023-03-27T23:17:44.767Z,0.31
2023-03-27T23:20:34.225Z,0.22
2023-03-27T23:23:22.597Z,0.11
2023-03-27T23:26:11.142Z,0.02
2023-03-27T23:28:59.609Z,-0.05
2023-03-27T23:31:47.638Z,-0.08
2023-03-27T23:34:35.933Z,-0.15
2023-03-27T23:37:28.572Z,-0.12
2023-03-27T23:40:16.677Z,-0.15
2023-03-27T23:43:04.649Z,-0.17
2023-03-27T23:45:52.808Z,-0.22
2023-03-27T23:48:43.078Z,-0.30
2023-03-27T23:51:31.193Z,-0.33
2023-03-27T23:54:21.275Z,-0.33
2023-03-27T23:57:09.401Z,-0.27
2023-03-27T23:59:57.863Z,-0.25
